createdAt,value
2022-07-31T00:03:57.932Z,98643.50
2022-07-31T00:09:03.092Z,98640.13
2022-07-31T00:14:10.570Z,98637.75
2022-07-31T00:19:17.616Z,98644.22
2022-07-31T00:24:22.986Z,98642.53
2022-07-31T00:29:30.836Z,98633.91
2022-07-31T00:34:36.910Z,98632.78
2022-07-31T00:39:41.738Z,98617.22
2022-07-31T00:44:50.102Z,98620.13
2022-07-31T00:49:56.035Z,98630.50
2022-07-31T00:55:00.921Z,98636.09
2022-07-31T01:00:09.910Z,98632.72
2022-07-31T01:05:14.871Z,98628.47
2022-07-31T01:10:26.396Z,98628.69
2022-07-31T01:15:35.140Z,98629.88
2022-07-31T01:20:42.993Z,98630.91
2022-07-31T01:26:06.574Z,98626.84
2022-07-31T01:31:27.264Z,98620.78
2022-07-31T01:36:37.813Z,98630.47
2022-07-31T01:41:46.051Z,98619.16
2022-07-31T01:46:55.672Z,98626.97
2022-07-31T01:52:04.375Z,98620.22
2022-07-31T01:57:11.938Z,98620.56
2022-07-31T02:02:28.788Z,98620.91
2022-07-31T02:07:34.814Z,98611.47
2022-07-31T02:12:46.428Z,98611.00
2022-07-31T02:17:57.505Z,98600.72
2022-07-31T02:23:15.976Z,98604.78
2022-07-31T02:28:23.238Z,98618.66
2022-07-31T02:33:31.580Z,98616.31
2022-07-31T02:38:39.040Z,98609.09
2022-07-31T02:43:45.501Z,98619.41
2022-07-31T02:49:03.032Z,98610.78
2022-07-31T02:54:09.611Z,98607.59
2022-07-31T02:59:15.785Z,98607.94
2022-07-31T03:04:38.913Z,98606.63
2022-07-31T03:09:43.800Z,98593.63
2022-07-31T03:15:10.126Z,98606.59
2022-07-31T03:20:19.024Z,98602.59
2022-07-31T03:25:24.148Z,98589.41
2022-07-31T03:30:29.398Z,98597.03
2022-07-31T03:35:39.910Z,98583.84
2022-07-31T03:40:50.057Z,98593.97
2022-07-31T03:45:56.334Z,98593.16
2022-07-31T03:51:04.678Z,98585.88
2022-07-31T03:56:10.477Z,98586.06
2022-07-31T04:01:15.371Z,98587.75
2022-07-31T04:06:23.141Z,98587.75
2022-07-31T04:11:28.173Z,98590.25
2022-07-31T04:16:33.493Z,98602.44
2022-07-31T04:21:41.070Z,98596.50
2022-07-31T04:26:46.441Z,98603.06
2022-07-31T04:31:51.454Z,98602.22
2022-07-31T04:37:06.113Z,98604.38
2022-07-31T04:42:12.593Z,98608.56
2022-07-31T04:47:18.609Z,98622.38
2022-07-31T04:52:31.560Z,98629.03
2022-07-31T04:57:42.328Z,98624.28
2022-07-31T05:02:47.498Z,98628.41
2022-07-31T05:07:57.330Z,98636.63
2022-07-31T05:13:09.125Z,98642.28
2022-07-31T05:18:14.285Z,98633.72
2022-07-31T05:23:41.948Z,98639.75
2022-07-31T05:29:04.355Z,98637.00
2022-07-31T05:34:09.320Z,98635.91
2022-07-31T05:39:17.967Z,98629.38
2022-07-31T05:44:41.276Z,98637.91
2022-07-31T05:49:46.624Z,98630.16
2022-07-31T05:54:54.149Z,98633.63
2022-07-31T06:00:28.513Z,98647.19
2022-07-31T06:05:39.070Z,98643.81
2022-07-31T06:10:47.169Z,98646.53
2022-07-31T06:15:52.304Z,98648.94
2022-07-31T06:20:57.376Z,98643.72
2022-07-31T06:26:06.072Z,98639.69
2022-07-31T06:31:19.498Z,98640.66
2022-07-31T06:36:24.455Z,98640.34
2022-07-31T06:41:47.895Z,98636.91
2022-07-31T06:47:13.833Z,98638.94
2022-07-31T06:52:30.241Z,98625.44
2022-07-31T06:57:38.091Z,98621.41
2022-07-31T07:02:43.436Z,98620.31
2022-07-31T07:07:48.689Z,98619.38
2022-07-31T07:12:56.529Z,98611.75
2022-07-31T07:18:01.548Z,98592.53
2022-07-31T07:23:13.058Z,98597.44
2022-07-31T07:28:34.162Z,98596.25
2022-07-31T07:33:42.739Z,98582.47
2022-07-31T07:38:58.992Z,98582.75
2022-07-31T07:44:06.808Z,98581.09
2022-07-31T07:49:12.414Z,98568.94
2022-07-31T07:54:22.688Z,98565.38
2022-07-31T08:00:02.253Z,98564.56
2022-07-31T08:05:22.835Z,98560.97
2022-07-31T08:10:28.792Z,98548.78
2022-07-31T08:15:44.150Z,98550.03
2022-07-31T08:21:04.804Z,98548.88
2022-07-31T08:26:11.576Z,98539.56
2022-07-31T08:31:22.380Z,98529.19
2022-07-31T08:36:43.307Z,98528.06
2022-07-31T08:41:48.286Z,98529.63
2022-07-31T08:46:59.926Z,98513.06
2022-07-31T08:52:06.084Z,98522.13
2022-07-31T08:57:29.612Z,98516.72
2022-07-31T09:02:41.159Z,98508.28
2022-07-31T09:08:21.854Z,98499.53
2022-07-31T09:13:31.007Z,98503.13
2022-07-31T09:18:40.959Z,98488.56
2022-07-31T09:23:50.625Z,98480.97
2022-07-31T09:28:55.525Z,98479.22
2022-07-31T09:34:03.746Z,98483.16
2022-07-31T09:39:27.184Z,98480.44
2022-07-31T09:44:52.984Z,98470.94
2022-07-31T09:50:03.174Z,98473.72
2022-07-31T09:55:15.933Z,98471.09
2022-07-31T10:00:21.962Z,98460.88
2022-07-31T10:05:31.778Z,98448.69
2022-07-31T10:10:46.135Z,98444.69
2022-07-31T10:16:17.940Z,98445.88
2022-07-31T10:21:39.174Z,98437.50
2022-07-31T10:27:00.416Z,98433.09
2022-07-31T10:32:07.679Z,98417.66
2022-07-31T10:37:23.188Z,98425.28
2022-07-31T10:42:51.816Z,98411.72
2022-07-31T10:47:58.305Z,98409.25
2022-07-31T10:53:50.232Z,98398.44
2022-07-31T10:59:02.083Z,98386.25
2022-07-31T11:04:35.110Z,98386.28
2022-07-31T11:09:57.246Z,98380.53
2022-07-31T11:15:27.138Z,98365.16
2022-07-31T11:21:13.657Z,98370.81
2022-07-31T11:26:33.063Z,98365.38
2022-07-31T11:31:53.768Z,98370.44
2022-07-31T11:37:01.934Z,98362.22
2022-07-31T11:42:14.353Z,98365.63
2022-07-31T11:48:09.418Z,98355.72
2022-07-31T11:52:47.863Z,98345.44
2022-07-31T11:57:56.151Z,98335.94
2022-07-31T12:03:01.535Z,98346.66
2022-07-31T12:08:09.651Z,98329.09
2022-07-31T12:13:20.380Z,98332.03
2022-07-31T12:18:27.433Z,98332.16
2022-07-31T12:23:47.270Z,98331.16
2022-07-31T12:29:02.963Z,98325.06
2022-07-31T12:34:08.204Z,98323.97
2022-07-31T12:39:14.794Z,98323.19
2022-07-31T12:44:23.345Z,98321.88
2022-07-31T12:49:28.536Z,98301.25
2022-07-31T12:54:39.491Z,98293.59
2022-07-31T12:59:47.810Z,98290.69
2022-07-31T13:04:53.846Z,98284.03
2022-07-31T13:10:20.449Z,98273.84
2022-07-31T13:15:30.185Z,98262.50
2022-07-31T13:20:36.245Z,98261.69
2022-07-31T13:25:42.196Z,98257.25
2022-07-31T13:30:53.298Z,98256.00
2022-07-31T13:36:00.340Z,98259.53
2022-07-31T13:41:18.535Z,98244.81
2022-07-31T13:46:26.474Z,98241.78
2022-07-31T13:51:31.339Z,98244.81
2022-07-31T13:56:42.643Z,98234.03
2022-07-31T14:02:13.538Z,98239.78
2022-07-31T14:07:45.297Z,98240.28
2022-07-31T14:12:53.639Z,98241.25
2022-07-31T14:18:04.319Z,98232.97
2022-07-31T14:23:12.808Z,98237.41
2022-07-31T14:28:17.930Z,98233.03
2022-07-31T14:33:25.406Z,98235.53
2022-07-31T14:38:30.862Z,98226.53
2022-07-31T14:43:36.464Z,98226.78
2022-07-31T14:48:44.084Z,98224.69
2022-07-31T14:53:49.010Z,98220.78
2022-07-31T14:58:58.437Z,98215.38
2022-07-31T15:04:06.995Z,98211.28
2022-07-31T15:09:11.960Z,98206.63
2022-07-31T15:14:20.337Z,98211.94
2022-07-31T15:19:29.012Z,98215.22
2022-07-31T15:24:34.332Z,98212.13
2022-07-31T15:30:00.210Z,98215.47
2022-07-31T15:35:07.793Z,98217.84
2022-07-31T15:40:15.276Z,98211.69
2022-07-31T15:45:22.456Z,98210.81
2022-07-31T15:50:34.192Z,98211.88
2022-07-31T15:55:40.052Z,98207.44
2022-07-31T16:00:45.085Z,98207.38
2022-07-31T16:05:55.941Z,98200.38
2022-07-31T16:11:01.250Z,98207.19
2022-07-31T16:16:07.366Z,98205.94
2022-07-31T16:21:15.054Z,98209.19
2022-07-31T16:26:20.281Z,98205.47
2022-07-31T16:31:29.855Z,98218.72
2022-07-31T16:36:39.041Z,98198.28
2022-07-31T16:41:54.288Z,98196.81
2022-07-31T16:46:59.775Z,98191.81
2022-07-31T16:52:09.970Z,98192.81
2022-07-31T16:57:15.427Z,98182.28
2022-07-31T17:02:20.404Z,98181.66
2022-07-31T17:07:28.565Z,98175.84
2022-07-31T17:12:33.457Z,98168.34
2022-07-31T17:17:38.450Z,98175.19
2022-07-31T17:22:46.052Z,98169.38
2022-07-31T17:27:59.080Z,98160.22
2022-07-31T17:33:04.019Z,98169.56
2022-07-31T17:38:11.609Z,98168.94
2022-07-31T17:43:17.359Z,98183.97
2022-07-31T17:48:33.110Z,98183.31
2022-07-31T17:53:54.628Z,98180.66
2022-07-31T17:59:05.760Z,98169.75
2022-07-31T18:04:11.073Z,98151.41
2022-07-31T18:09:23.911Z,98153.91
2022-07-31T18:14:29.295Z,98151.59
2022-07-31T18:19:34.309Z,98154.19
2022-07-31T18:24:42.534Z,98165.09
2022-07-31T18:29:55.953Z,98162.41
2022-07-31T18:35:01.602Z,98168.88
2022-07-31T18:40:13.151Z,98155.41
2022-07-31T18:45:25.029Z,98172.72
2022-07-31T18:51:01.370Z,98188.22
2022-07-31T18:55:57.815Z,98197.00
2022-07-31T19:01:02.902Z,98200.13
2022-07-31T19:06:08.577Z,98195.38
2022-07-31T19:11:16.185Z,98197.53
2022-07-31T19:16:21.092Z,98190.63
2022-07-31T19:21:42.065Z,98185.03
2022-07-31T19:27:06.772Z,98184.69
2022-07-31T19:32:11.737Z,98189.69
2022-07-31T19:37:16.676Z,98189.00
2022-07-31T19:42:24.634Z,98182.94
2022-07-31T19:47:33.744Z,98191.69
2022-07-31T19:52:39.367Z,98180.56
2022-07-31T19:57:53.795Z,98187.16
2022-07-31T20:03:01.929Z,98184.31
2022-07-31T20:08:08.733Z,98176.56
2022-07-31T20:13:16.591Z,98175.97
2022-07-31T20:18:54.562Z,98176.91
2022-07-31T20:24:00.693Z,98169.78
2022-07-31T20:29:08.821Z,98176.22
2022-07-31T20:34:13.842Z,98178.97
2022-07-31T20:39:18.974Z,98186.94
2022-07-31T20:44:26.851Z,98183.38
2022-07-31T20:49:35.810Z,98195.34
2022-07-31T20:54:41.964Z,98199.84
2022-07-31T20:59:49.817Z,98196.50
2022-07-31T21:04:54.999Z,98194.84
2022-07-31T21:10:00.612Z,98190.78
2022-07-31T21:15:30.286Z,98194.50
2022-07-31T21:20:51.289Z,98194.16
2022-07-31T21:26:00.199Z,98181.06
2022-07-31T21:31:09.600Z,98181.53
2022-07-31T21:36:17.509Z,98180.91
2022-07-31T21:41:24.005Z,98176.75
2022-07-31T21:46:32.919Z,98181.25
2022-07-31T21:51:38.624Z,98175.03
2022-07-31T21:56:45.869Z,98190.91
2022-07-31T22:01:57.504Z,98192.09
2022-07-31T22:07:25.870Z,98198.50
2022-07-31T22:12:30.873Z,98196.13
2022-07-31T22:17:38.373Z,98190.16
2022-07-31T22:22:45.405Z,98181.22
2022-07-31T22:27:56.373Z,98188.72
2022-07-31T22:33:13.196Z,98171.31
2022-07-31T22:38:18.209Z,98184.97
2022-07-31T22:44:11.090Z,98177.16
2022-07-31T22:48:51.184Z,98182.81
2022-07-31T22:53:56.283Z,98188.22
2022-07-31T22:59:01.419Z,98188.56
2022-07-31T23:04:09.189Z,98187.22
2022-07-31T23:09:14.096Z,98177.19
2022-07-31T23:14:19.036Z,98179.78
2022-07-31T23:19:27.270Z,98171.91
2022-07-31T23:24:32.211Z,98181.00
2022-07-31T23:29:41.699Z,98176.47
2022-07-31T23:34:49.298Z,98175.66
2022-07-31T23:39:54.645Z,98174.91
2022-07-31T23:44:59.699Z,98178.09
2022-07-31T23:50:08.329Z,98183.16
2022-07-31T23:55:14.498Z,98178.38
